sensor_id;sensor_type;location;lat;lon;timestamp;P1;durP1;ratioP1;P2;durP2;ratioP2
61785;SDS011;47692;53.714;11.372;2022-08-20T00:00:25;35.78;;;19.23;;
61785;SDS011;47692;53.714;11.372;2022-08-20T00:02:53;37.20;;;20.23;;
61785;SDS011;47692;53.714;11.372;2022-08-20T00:05:23;33.38;;;17.35;;
61785;SDS011;47692;53.714;11.372;2022-08-20T00:07:53;43.42;;;20.20;;
61785;SDS011;47692;53.714;11.372;2022-08-20T00:10:19;41.65;;;19.50;;
61785;SDS011;47692;53.714;11.372;2022-08-20T00:12:47;34.78;;;19.55;;
61785;SDS011;47692;53.714;11.372;2022-08-20T00:15:14;33.60;;;18.08;;
61785;SDS011;47692;53.714;11.372;2022-08-20T00:17:46;32.80;;;17.20;;
61785;SDS011;47692;53.714;11.372;2022-08-20T00:20:15;35.53;;;19.05;;
61785;SDS011;47692;53.714;11.372;2022-08-20T00:22:41;41.03;;;20.48;;
61785;SDS011;47692;53.714;11.372;2022-08-20T00:25:08;38.10;;;20.35;;
61785;SDS011;47692;53.714;11.372;2022-08-20T00:27:34;35.65;;;19.40;;
61785;SDS011;47692;53.714;11.372;2022-08-20T00:30:00;35.03;;;18.92;;
61785;SDS011;47692;53.714;11.372;2022-08-20T00:32:25;38.20;;;19.52;;
61785;SDS011;47692;53.714;11.372;2022-08-20T00:34:50;34.45;;;18.83;;
61785;SDS011;47692;53.714;11.372;2022-08-20T00:37:16;35.67;;;19.67;;
61785;SDS011;47692;53.714;11.372;2022-08-20T00:39:41;38.58;;;19.45;;
61785;SDS011;47692;53.714;11.372;2022-08-20T00:42:07;40.25;;;18.42;;
61785;SDS011;47692;53.714;11.372;2022-08-20T00:44:32;36.25;;;19.30;;
61785;SDS011;47692;53.714;11.372;2022-08-20T00:46:58;34.50;;;19.50;;
61785;SDS011;47692;53.714;11.372;2022-08-20T00:49:27;36.22;;;18.65;;
61785;SDS011;47692;53.714;11.372;2022-08-20T00:52:03;35.17;;;18.75;;
61785;SDS011;47692;53.714;11.372;2022-08-20T00:54:38;37.83;;;19.15;;
61785;SDS011;47692;53.714;11.372;2022-08-20T00:57:24;36.38;;;19.10;;
61785;SDS011;47692;53.714;11.372;2022-08-20T00:59:53;37.85;;;19.23;;
61785;SDS011;47692;53.714;11.372;2022-08-20T01:02:22;31.75;;;17.25;;
61785;SDS011;47692;53.714;11.372;2022-08-20T01:04:49;30.45;;;16.98;;
61785;SDS011;47692;53.714;11.372;2022-08-20T01:07:24;37.28;;;19.90;;
61785;SDS011;47692;53.714;11.372;2022-08-20T01:09:58;34.53;;;18.67;;
61785;SDS011;47692;53.714;11.372;2022-08-20T01:12:26;34.28;;;18.95;;
61785;SDS011;47692;53.714;11.372;2022-08-20T01:14:54;38.10;;;20.08;;
61785;SDS011;47692;53.714;11.372;2022-08-20T01:17:24;32.53;;;18.65;;
61785;SDS011;47692;53.714;11.372;2022-08-20T01:25:51;34.67;;;18.42;;
61785;SDS011;47692;53.714;11.372;2022-08-20T01:28:25;34.83;;;18.27;;
61785;SDS011;47692;53.714;11.372;2022-08-20T01:30:55;32.08;;;17.92;;
61785;SDS011;47692;53.714;11.372;2022-08-20T01:33:21;35.42;;;18.15;;
61785;SDS011;47692;53.714;11.372;2022-08-20T01:35:48;36.95;;;18.15;;
61785;SDS011;47692;53.714;11.372;2022-08-20T01:38:15;32.53;;;19.25;;
61785;SDS011;47692;53.714;11.372;2022-08-20T01:40:56;30.25;;;17.60;;
61785;SDS011;47692;53.714;11.372;2022-08-20T01:43:50;33.92;;;18.02;;
61785;SDS011;47692;53.714;11.372;2022-08-20T01:46:22;31.17;;;17.63;;
61785;SDS011;47692;53.714;11.372;2022-08-20T01:48:49;30.38;;;17.48;;
61785;SDS011;47692;53.714;11.372;2022-08-20T01:51:20;30.65;;;17.50;;
61785;SDS011;47692;53.714;11.372;2022-08-20T01:53:50;25.67;;;15.80;;
61785;SDS011;47692;53.714;11.372;2022-08-20T01:56:18;29.30;;;17.25;;
61785;SDS011;47692;53.714;11.372;2022-08-20T01:58:49;28.38;;;17.60;;
61785;SDS011;47692;53.714;11.372;2022-08-20T02:01:21;29.63;;;16.58;;
61785;SDS011;47692;53.714;11.372;2022-08-20T02:03:50;28.90;;;16.38;;
61785;SDS011;47692;53.714;11.372;2022-08-20T02:06:16;28.13;;;15.77;;
61785;SDS011;47692;53.714;11.372;2022-08-20T02:08:42;27.30;;;15.52;;
61785;SDS011;47692;53.714;11.372;2022-08-20T02:11:08;25.20;;;15.30;;
61785;SDS011;47692;53.714;11.372;2022-08-20T02:13:34;25.23;;;15.55;;
61785;SDS011;47692;53.714;11.372;2022-08-20T02:16:00;28.58;;;15.15;;
61785;SDS011;47692;53.714;11.372;2022-08-20T02:18:25;27.25;;;15.00;;
61785;SDS011;47692;53.714;11.372;2022-08-20T02:20:51;24.40;;;14.02;;
61785;SDS011;47692;53.714;11.372;2022-08-20T02:23:16;26.80;;;15.23;;
61785;SDS011;47692;53.714;11.372;2022-08-20T02:25:43;22.70;;;13.80;;
61785;SDS011;47692;53.714;11.372;2022-08-20T02:28:12;24.27;;;14.43;;
61785;SDS011;47692;53.714;11.372;2022-08-20T02:30:41;26.63;;;14.50;;
61785;SDS011;47692;53.714;11.372;2022-08-20T02:33:12;25.02;;;14.18;;
61785;SDS011;47692;53.714;11.372;2022-08-20T02:35:40;24.52;;;13.90;;
61785;SDS011;47692;53.714;11.372;2022-08-20T02:38:07;23.92;;;14.30;;
61785;SDS011;47692;53.714;11.372;2022-08-20T02:40:33;23.98;;;14.60;;
61785;SDS011;47692;53.714;11.372;2022-08-20T02:43:00;26.35;;;14.07;;
61785;SDS011;47692;53.714;11.372;2022-08-20T02:45:27;24.40;;;13.73;;
61785;SDS011;47692;53.714;11.372;2022-08-20T02:47:53;21.52;;;13.43;;
61785;SDS011;47692;53.714;11.372;2022-08-20T02:50:21;23.52;;;13.70;;
61785;SDS011;47692;53.714;11.372;2022-08-20T02:52:47;24.65;;;13.73;;
61785;SDS011;47692;53.714;11.372;2022-08-20T02:55:14;20.77;;;13.00;;
61785;SDS011;47692;53.714;11.372;2022-08-20T02:57:40;22.50;;;12.73;;
61785;SDS011;47692;53.714;11.372;2022-08-20T03:00:11;24.55;;;13.15;;
61785;SDS011;47692;53.714;11.372;2022-08-20T03:02:39;20.45;;;12.50;;
61785;SDS011;47692;53.714;11.372;2022-08-20T03:05:05;22.88;;;13.52;;
61785;SDS011;47692;53.714;11.372;2022-08-20T03:07:31;25.92;;;13.63;;
61785;SDS011;47692;53.714;11.372;2022-08-20T03:09:57;23.45;;;12.63;;
61785;SDS011;47692;53.714;11.372;2022-08-20T03:12:22;24.58;;;12.63;;
61785;SDS011;47692;53.714;11.372;2022-08-20T03:14:48;24.52;;;13.85;;
61785;SDS011;47692;53.714;11.372;2022-08-20T03:17:14;21.27;;;12.85;;
61785;SDS011;47692;53.714;11.372;2022-08-20T03:19:40;28.95;;;14.93;;
61785;SDS011;47692;53.714;11.372;2022-08-20T03:22:06;22.60;;;14.13;;
61785;SDS011;47692;53.714;11.372;2022-08-20T03:24:31;25.02;;;13.25;;
61785;SDS011;47692;53.714;11.372;2022-08-20T03:26:57;22.33;;;12.80;;
61785;SDS011;47692;53.714;11.372;2022-08-20T03:29:22;22.77;;;12.88;;
61785;SDS011;47692;53.714;11.372;2022-08-20T03:31:48;23.38;;;12.77;;
61785;SDS011;47692;53.714;11.372;2022-08-20T03:34:13;21.77;;;12.18;;
61785;SDS011;47692;53.714;11.372;2022-08-20T03:36:39;23.80;;;12.13;;
61785;SDS011;47692;53.714;11.372;2022-08-20T03:39:05;18.67;;;12.27;;
61785;SDS011;47692;53.714;11.372;2022-08-20T03:41:35;21.02;;;11.88;;
61785;SDS011;47692;53.714;11.372;2022-08-20T03:44:00;18.98;;;11.32;;
61785;SDS011;47692;53.714;11.372;2022-08-20T03:46:25;19.98;;;11.57;;
61785;SDS011;47692;53.714;11.372;2022-08-20T03:48:51;21.67;;;12.18;;
61785;SDS011;47692;53.714;11.372;2022-08-20T03:51:17;21.10;;;11.52;;
61785;SDS011;47692;53.714;11.372;2022-08-20T03:53:42;19.95;;;11.77;;
61785;SDS011;47692;53.714;11.372;2022-08-20T03:56:07;18.55;;;11.30;;
61785;SDS011;47692;53.714;11.372;2022-08-20T03:58:33;18.25;;;10.95;;
61785;SDS011;47692;53.714;11.372;2022-08-20T04:00:59;21.45;;;11.32;;
61785;SDS011;47692;53.714;11.372;2022-08-20T04:03:25;17.67;;;9.93;;
61785;SDS011;47692;53.714;11.372;2022-08-20T04:05:51;18.05;;;10.73;;
61785;SDS011;47692;53.714;11.372;2022-08-20T04:08:18;16.65;;;10.27;;
61785;SDS011;47692;53.714;11.372;2022-08-20T04:10:49;19.48;;;10.50;;
61785;SDS011;47692;53.714;11.372;2022-08-20T04:13:16;16.50;;;9.65;;
61785;SDS011;47692;53.714;11.372;2022-08-20T04:15:43;17.13;;;10.15;;
61785;SDS011;47692;53.714;11.372;2022-08-20T04:18:12;15.57;;;9.48;;
61785;SDS011;47692;53.714;11.372;2022-08-20T04:20:39;16.95;;;9.85;;
61785;SDS011;47692;53.714;11.372;2022-08-20T04:23:06;15.90;;;9.57;;
61785;SDS011;47692;53.714;11.372;2022-08-20T04:25:33;16.65;;;9.18;;
61785;SDS011;47692;53.714;11.372;2022-08-20T04:28:00;13.23;;;8.18;;
61785;SDS011;47692;53.714;11.372;2022-08-20T04:30:27;15.55;;;8.48;;
61785;SDS011;47692;53.714;11.372;2022-08-20T04:32:53;15.10;;;9.27;;
61785;SDS011;47692;53.714;11.372;2022-08-20T04:35:20;14.40;;;9.00;;
61785;SDS011;47692;53.714;11.372;2022-08-20T04:37:48;17.30;;;9.07;;
61785;SDS011;47692;53.714;11.372;2022-08-20T04:40:17;15.35;;;9.35;;
61785;SDS011;47692;53.714;11.372;2022-08-20T04:43:02;15.77;;;9.38;;
61785;SDS011;47692;53.714;11.372;2022-08-20T04:45:29;17.02;;;10.13;;
61785;SDS011;47692;53.714;11.372;2022-08-20T04:47:55;15.38;;;9.77;;
61785;SDS011;47692;53.714;11.372;2022-08-20T04:50:21;15.90;;;9.55;;
61785;SDS011;47692;53.714;11.372;2022-08-20T04:52:47;15.18;;;9.48;;
61785;SDS011;47692;53.714;11.372;2022-08-20T04:55:13;14.65;;;9.38;;
61785;SDS011;47692;53.714;11.372;2022-08-20T04:57:40;15.23;;;9.35;;
61785;SDS011;47692;53.714;11.372;2022-08-20T05:00:07;16.92;;;9.70;;
61785;SDS011;47692;53.714;11.372;2022-08-20T05:02:36;15.60;;;9.85;;
61785;SDS011;47692;53.714;11.372;2022-08-20T05:05:02;18.77;;;11.27;;
61785;SDS011;47692;53.714;11.372;2022-08-20T05:07:28;17.75;;;9.75;;
61785;SDS011;47692;53.714;11.372;2022-08-20T05:09:54;19.25;;;10.57;;
61785;SDS011;47692;53.714;11.372;2022-08-20T05:12:19;19.15;;;11.57;;
61785;SDS011;47692;53.714;11.372;2022-08-20T05:14:44;20.40;;;11.00;;
61785;SDS011;47692;53.714;11.372;2022-08-20T05:17:11;19.42;;;10.73;;
61785;SDS011;47692;53.714;11.372;2022-08-20T05:19:39;23.83;;;11.30;;
61785;SDS011;47692;53.714;11.372;2022-08-20T05:22:06;20.50;;;11.05;;
61785;SDS011;47692;53.714;11.372;2022-08-20T05:24:31;23.92;;;12.82;;
61785;SDS011;47692;53.714;11.372;2022-08-20T05:27:00;20.60;;;11.25;;
61785;SDS011;47692;53.714;11.372;2022-08-20T05:29:26;20.80;;;11.95;;
61785;SDS011;47692;53.714;11.372;2022-08-20T05:31:52;18.88;;;11.35;;
61785;SDS011;47692;53.714;11.372;2022-08-20T05:34:20;22.05;;;11.77;;
61785;SDS011;47692;53.714;11.372;2022-08-20T05:36:46;20.42;;;11.75;;
61785;SDS011;47692;53.714;11.372;2022-08-20T05:39:13;19.60;;;11.25;;
61785;SDS011;47692;53.714;11.372;2022-08-20T05:41:39;21.95;;;12.68;;
61785;SDS011;47692;53.714;11.372;2022-08-20T05:44:05;20.30;;;11.13;;
61785;SDS011;47692;53.714;11.372;2022-08-20T05:46:37;23.23;;;11.90;;
61785;SDS011;47692;53.714;11.372;2022-08-20T05:49:05;20.65;;;12.23;;
61785;SDS011;47692;53.714;11.372;2022-08-20T05:51:31;22.70;;;12.82;;
61785;SDS011;47692;53.714;11.372;2022-08-20T05:53:57;18.65;;;11.60;;
61785;SDS011;47692;53.714;11.372;2022-08-20T05:56:22;22.45;;;12.43;;
61785;SDS011;47692;53.714;11.372;2022-08-20T05:58:47;25.33;;;13.05;;
61785;SDS011;47692;53.714;11.372;2022-08-20T06:01:13;26.33;;;11.95;;
61785;SDS011;47692;53.714;11.372;2022-08-20T06:03:38;22.08;;;12.75;;
61785;SDS011;47692;53.714;11.372;2022-08-20T06:06:22;21.83;;;13.13;;
61785;SDS011;47692;53.714;11.372;2022-08-20T06:08:47;21.65;;;12.75;;
61785;SDS011;47692;53.714;11.372;2022-08-20T06:11:12;25.50;;;13.07;;
61785;SDS011;47692;53.714;11.372;2022-08-20T06:13:38;24.25;;;13.18;;
61785;SDS011;47692;53.714;11.372;2022-08-20T06:16:03;26.23;;;13.75;;
61785;SDS011;47692;53.714;11.372;2022-08-20T06:18:29;23.33;;;12.30;;
61785;SDS011;47692;53.714;11.372;2022-08-20T06:20:54;22.75;;;12.60;;
61785;SDS011;47692;53.714;11.372;2022-08-20T06:23:20;23.05;;;12.82;;
61785;SDS011;47692;53.714;11.372;2022-08-20T06:25:47;27.55;;;13.15;;
61785;SDS011;47692;53.714;11.372;2022-08-20T06:28:14;22.90;;;13.60;;
61785;SDS011;47692;53.714;11.372;2022-08-20T06:30:39;24.98;;;13.63;;
61785;SDS011;47692;53.714;11.372;2022-08-20T06:33:04;23.33;;;13.65;;
61785;SDS011;47692;53.714;11.372;2022-08-20T06:35:30;26.80;;;12.63;;
61785;SDS011;47692;53.714;11.372;2022-08-20T06:37:56;24.90;;;12.98;;
61785;SDS011;47692;53.714;11.372;2022-08-20T06:40:25;26.27;;;13.85;;
61785;SDS011;47692;53.714;11.372;2022-08-20T06:42:52;30.33;;;13.20;;
61785;SDS011;47692;53.714;11.372;2022-08-20T06:45:20;23.90;;;12.02;;
61785;SDS011;47692;53.714;11.372;2022-08-20T06:47:48;24.13;;;12.95;;
61785;SDS011;47692;53.714;11.372;2022-08-20T06:50:26;21.65;;;11.98;;
61785;SDS011;47692;53.714;11.372;2022-08-20T06:52:55;25.70;;;13.93;;
61785;SDS011;47692;53.714;11.372;2022-08-20T06:55:20;22.35;;;12.70;;
61785;SDS011;47692;53.714;11.372;2022-08-20T06:57:46;24.67;;;13.20;;
61785;SDS011;47692;53.714;11.372;2022-08-20T07:00:20;25.40;;;11.77;;
61785;SDS011;47692;53.714;11.372;2022-08-20T07:02:45;24.25;;;12.10;;
61785;SDS011;47692;53.714;11.372;2022-08-20T07:05:12;23.80;;;11.95;;
61785;SDS011;47692;53.714;11.372;2022-08-20T07:07:37;23.90;;;12.52;;
61785;SDS011;47692;53.714;11.372;2022-08-20T07:10:05;25.08;;;11.95;;
61785;SDS011;47692;53.714;11.372;2022-08-20T07:12:32;22.60;;;12.43;;
61785;SDS011;47692;53.714;11.372;2022-08-20T07:15:01;24.00;;;11.65;;
61785;SDS011;47692;53.714;11.372;2022-08-20T07:17:30;26.52;;;12.70;;
61785;SDS011;47692;53.714;11.372;2022-08-20T07:19:55;21.33;;;10.90;;
61785;SDS011;47692;53.714;11.372;2022-08-20T07:22:20;22.23;;;11.63;;
61785;SDS011;47692;53.714;11.372;2022-08-20T07:24:46;18.95;;;10.35;;
61785;SDS011;47692;53.714;11.372;2022-08-20T07:27:11;22.02;;;11.88;;
61785;SDS011;47692;53.714;11.372;2022-08-20T07:29:37;20.75;;;11.30;;
61785;SDS011;47692;53.714;11.372;2022-08-20T07:32:21;17.27;;;10.27;;
61785;SDS011;47692;53.714;11.372;2022-08-20T07:34:58;20.67;;;10.40;;
61785;SDS011;47692;53.714;11.372;2022-08-20T07:37:24;19.00;;;10.70;;
61785;SDS011;47692;53.714;11.372;2022-08-20T07:39:50;17.10;;;9.63;;
61785;SDS011;47692;53.714;11.372;2022-08-20T07:42:16;20.90;;;10.00;;
61785;SDS011;47692;53.714;11.372;2022-08-20T07:44:42;15.40;;;8.98;;
61785;SDS011;47692;53.714;11.372;2022-08-20T07:47:07;13.27;;;7.15;;
61785;SDS011;47692;53.714;11.372;2022-08-20T07:49:36;15.48;;;8.10;;
61785;SDS011;47692;53.714;11.372;2022-08-20T07:52:03;12.02;;;7.18;;
61785;SDS011;47692;53.714;11.372;2022-08-20T07:54:29;14.35;;;7.15;;
61785;SDS011;47692;53.714;11.372;2022-08-20T07:56:58;13.85;;;6.60;;
61785;SDS011;47692;53.714;11.372;2022-08-20T07:59:26;12.13;;;6.90;;
61785;SDS011;47692;53.714;11.372;2022-08-20T08:01:52;11.60;;;5.70;;
61785;SDS011;47692;53.714;11.372;2022-08-20T08:04:17;10.93;;;5.70;;
61785;SDS011;47692;53.714;11.372;2022-08-20T08:06:42;8.77;;;5.05;;
61785;SDS011;47692;53.714;11.372;2022-08-20T08:09:11;11.43;;;6.75;;
61785;SDS011;47692;53.714;11.372;2022-08-20T08:11:39;9.90;;;5.90;;
61785;SDS011;47692;53.714;11.372;2022-08-20T08:14:07;10.15;;;5.53;;
61785;SDS011;47692;53.714;11.372;2022-08-20T08:16:35;8.20;;;5.78;;
61785;SDS011;47692;53.714;11.372;2022-08-20T08:19:01;9.70;;;5.78;;
61785;SDS011;47692;53.714;11.372;2022-08-20T08:21:30;9.00;;;5.78;;
61785;SDS011;47692;53.714;11.372;2022-08-20T08:23:56;8.75;;;5.18;;
61785;SDS011;47692;53.714;11.372;2022-08-20T08:26:22;11.57;;;5.90;;
61785;SDS011;47692;53.714;11.372;2022-08-20T08:28:48;10.00;;;5.50;;
61785;SDS011;47692;53.714;11.372;2022-08-20T08:31:13;9.35;;;6.30;;
61785;SDS011;47692;53.714;11.372;2022-08-20T08:33:39;9.15;;;5.13;;
61785;SDS011;47692;53.714;11.372;2022-08-20T08:36:06;8.05;;;4.95;;
61785;SDS011;47692;53.714;11.372;2022-08-20T08:38:35;6.32;;;4.22;;
61785;SDS011;47692;53.714;11.372;2022-08-20T08:41:03;6.47;;;3.30;;
61785;SDS011;47692;53.714;11.372;2022-08-20T08:43:37;4.43;;;2.75;;
61785;SDS011;47692;53.714;11.372;2022-08-20T08:46:05;5.22;;;3.08;;
61785;SDS011;47692;53.714;11.372;2022-08-20T08:48:42;4.68;;;3.10;;
61785;SDS011;47692;53.714;11.372;2022-08-20T08:51:11;4.45;;;3.30;;
61785;SDS011;47692;53.714;11.372;2022-08-20T08:53:48;4.97;;;2.90;;
61785;SDS011;47692;53.714;11.372;2022-08-20T08:56:19;4.72;;;3.00;;
61785;SDS011;47692;53.714;11.372;2022-08-20T08:58:47;3.80;;;2.38;;
61785;SDS011;47692;53.714;11.372;2022-08-20T09:01:15;5.88;;;2.10;;
61785;SDS011;47692;53.714;11.372;2022-08-20T09:03:44;5.93;;;3.28;;
61785;SDS011;47692;53.714;11.372;2022-08-20T09:06:13;4.43;;;3.22;;
61785;SDS011;47692;53.714;11.372;2022-08-20T09:08:43;5.28;;;3.05;;
61785;SDS011;47692;53.714;11.372;2022-08-20T09:11:11;5.50;;;2.97;;
61785;SDS011;47692;53.714;11.372;2022-08-20T09:13:38;4.10;;;2.80;;
61785;SDS011;47692;53.714;11.372;2022-08-20T09:16:04;3.38;;;2.33;;
61785;SDS011;47692;53.714;11.372;2022-08-20T09:18:30;3.90;;;2.20;;
61785;SDS011;47692;53.714;11.372;2022-08-20T09:20:56;3.20;;;2.22;;
61785;SDS011;47692;53.714;11.372;2022-08-20T09:23:21;3.42;;;1.88;;
61785;SDS011;47692;53.714;11.372;2022-08-20T09:25:47;3.90;;;2.10;;
61785;SDS011;47692;53.714;11.372;2022-08-20T09:28:12;5.22;;;2.20;;
61785;SDS011;47692;53.714;11.372;2022-08-20T09:30:37;3.03;;;1.80;;
61785;SDS011;47692;53.714;11.372;2022-08-20T09:33:03;3.38;;;1.90;;
61785;SDS011;47692;53.714;11.372;2022-08-20T09:35:28;2.50;;;1.90;;
61785;SDS011;47692;53.714;11.372;2022-08-20T09:37:53;3.67;;;2.20;;
61785;SDS011;47692;53.714;11.372;2022-08-20T09:40:19;2.88;;;2.20;;
61785;SDS011;47692;53.714;11.372;2022-08-20T09:42:45;2.92;;;1.90;;
61785;SDS011;47692;53.714;11.372;2022-08-20T09:45:11;3.00;;;1.80;;
61785;SDS011;47692;53.714;11.372;2022-08-20T09:47:38;2.75;;;1.65;;
61785;SDS011;47692;53.714;11.372;2022-08-20T09:50:04;2.90;;;1.92;;
61785;SDS011;47692;53.714;11.372;2022-08-20T09:52:31;4.47;;;1.70;;
61785;SDS011;47692;53.714;11.372;2022-08-20T09:55:01;2.53;;;1.67;;
61785;SDS011;47692;53.714;11.372;2022-08-20T09:57:28;3.03;;;1.75;;
61785;SDS011;47692;53.714;11.372;2022-08-20T09:59:58;2.67;;;1.80;;
61785;SDS011;47692;53.714;11.372;2022-08-20T10:02:25;2.20;;;1.60;;
61785;SDS011;47692;53.714;11.372;2022-08-20T10:04:51;5.00;;;1.40;;
61785;SDS011;47692;53.714;11.372;2022-08-20T10:07:17;2.50;;;1.70;;
61785;SDS011;47692;53.714;11.372;2022-08-20T10:09:42;4.00;;;1.60;;
61785;SDS011;47692;53.714;11.372;2022-08-20T10:12:08;3.05;;;1.88;;
61785;SDS011;47692;53.714;11.372;2022-08-20T10:14:33;4.35;;;2.05;;
61785;SDS011;47692;53.714;11.372;2022-08-20T10:16:59;3.08;;;1.58;;
61785;SDS011;47692;53.714;11.372;2022-08-20T10:19:26;3.03;;;1.83;;
61785;SDS011;47692;53.714;11.372;2022-08-20T10:21:52;2.83;;;2.00;;
61785;SDS011;47692;53.714;11.372;2022-08-20T10:24:18;3.03;;;1.73;;
61785;SDS011;47692;53.714;11.372;2022-08-20T10:26:45;3.53;;;1.55;;
61785;SDS011;47692;53.714;11.372;2022-08-20T10:29:11;2.45;;;1.65;;
61785;SDS011;47692;53.714;11.372;2022-08-20T10:31:36;2.17;;;1.50;;
61785;SDS011;47692;53.714;11.372;2022-08-20T10:34:02;3.15;;;1.67;;
61785;SDS011;47692;53.714;11.372;2022-08-20T10:36:27;3.05;;;1.45;;
61785;SDS011;47692;53.714;11.372;2022-08-20T10:38:53;2.20;;;1.50;;
61785;SDS011;47692;53.714;11.372;2022-08-20T10:41:18;2.70;;;1.60;;
61785;SDS011;47692;53.714;11.372;2022-08-20T10:43:44;5.15;;;1.55;;
61785;SDS011;47692;53.714;11.372;2022-08-20T10:46:10;3.35;;;1.70;;
61785;SDS011;47692;53.714;11.372;2022-08-20T10:48:35;3.63;;;1.70;;
61785;SDS011;47692;53.714;11.372;2022-08-20T10:51:01;1.90;;;1.50;;
61785;SDS011;47692;53.714;11.372;2022-08-20T10:53:27;3.45;;;1.65;;
61785;SDS011;47692;53.714;11.372;2022-08-20T10:55:53;3.72;;;1.45;;
61785;SDS011;47692;53.714;11.372;2022-08-20T10:58:19;3.50;;;1.63;;
61785;SDS011;47692;53.714;11.372;2022-08-20T11:00:45;1.95;;;1.48;;
61785;SDS011;47692;53.714;11.372;2022-08-20T11:03:11;3.08;;;1.60;;
61785;SDS011;47692;53.714;11.372;2022-08-20T11:05:36;3.15;;;1.73;;
61785;SDS011;47692;53.714;11.372;2022-08-20T11:08:02;2.20;;;1.50;;
61785;SDS011;47692;53.714;11.372;2022-08-20T11:10:29;3.40;;;1.50;;
61785;SDS011;47692;53.714;11.372;2022-08-20T11:12:57;2.25;;;1.13;;
61785;SDS011;47692;53.714;11.372;2022-08-20T11:15:23;2.90;;;1.25;;
61785;SDS011;47692;53.714;11.372;2022-08-20T11:17:49;2.00;;;1.17;;
61785;SDS011;47692;53.714;11.372;2022-08-20T11:20:16;2.22;;;1.38;;
61785;SDS011;47692;53.714;11.372;2022-08-20T11:22:42;3.58;;;1.55;;
61785;SDS011;47692;53.714;11.372;2022-08-20T11:25:08;3.03;;;1.25;;
61785;SDS011;47692;53.714;11.372;2022-08-20T11:27:35;3.22;;;2.00;;
61785;SDS011;47692;53.714;11.372;2022-08-20T11:30:08;2.03;;;1.60;;
61785;SDS011;47692;53.714;11.372;2022-08-20T11:32:36;2.10;;;1.40;;
61785;SDS011;47692;53.714;11.372;2022-08-20T11:35:01;2.50;;;1.50;;
61785;SDS011;47692;53.714;11.372;2022-08-20T11:37:27;2.10;;;1.60;;
61785;SDS011;47692;53.714;11.372;2022-08-20T11:39:52;2.90;;;1.80;;
61785;SDS011;47692;53.714;11.372;2022-08-20T11:42:18;2.88;;;1.55;;
61785;SDS011;47692;53.714;11.372;2022-08-20T11:44:43;2.20;;;1.30;;
61785;SDS011;47692;53.714;11.372;2022-08-20T11:47:09;2.65;;;1.40;;
61785;SDS011;47692;53.714;11.372;2022-08-20T11:49:54;4.03;;;1.95;;
61785;SDS011;47692;53.714;11.372;2022-08-20T11:52:28;2.75;;;1.65;;
61785;SDS011;47692;53.714;11.372;2022-08-20T11:54:54;3.58;;;1.60;;
61785;SDS011;47692;53.714;11.372;2022-08-20T11:57:24;3.50;;;1.42;;
61785;SDS011;47692;53.714;11.372;2022-08-20T11:59:55;2.35;;;1.20;;
61785;SDS011;47692;53.714;11.372;2022-08-20T12:02:21;2.03;;;1.33;;
61785;SDS011;47692;53.714;11.372;2022-08-20T12:04:47;1.90;;;1.30;;
61785;SDS011;47692;53.714;11.372;2022-08-20T12:07:14;3.75;;;1.55;;
61785;SDS011;47692;53.714;11.372;2022-08-20T12:09:42;1.85;;;1.40;;
61785;SDS011;47692;53.714;11.372;2022-08-20T12:12:09;2.25;;;1.58;;
61785;SDS011;47692;53.714;11.372;2022-08-20T12:14:35;1.98;;;1.30;;
61785;SDS011;47692;53.714;11.372;2022-08-20T12:17:07;3.00;;;1.70;;
61785;SDS011;47692;53.714;11.372;2022-08-20T12:19:45;1.50;;;1.17;;
61785;SDS011;47692;53.714;11.372;2022-08-20T12:22:10;2.17;;;1.25;;
61785;SDS011;47692;53.714;11.372;2022-08-20T12:24:36;3.38;;;1.15;;
61785;SDS011;47692;53.714;11.372;2022-08-20T12:27:12;1.98;;;1.40;;
61785;SDS011;47692;53.714;11.372;2022-08-20T12:29:49;2.65;;;1.40;;
61785;SDS011;47692;53.714;11.372;2022-08-20T12:32:17;3.53;;;1.60;;
61785;SDS011;47692;53.714;11.372;2022-08-20T12:34:46;2.60;;;1.33;;
61785;SDS011;47692;53.714;11.372;2022-08-20T12:37:20;1.98;;;1.38;;
61785;SDS011;47692;53.714;11.372;2022-08-20T12:39:48;2.55;;;1.40;;
61785;SDS011;47692;53.714;11.372;2022-08-20T12:42:18;4.47;;;1.65;;
61785;SDS011;47692;53.714;11.372;2022-08-20T12:44:44;2.50;;;1.45;;
61785;SDS011;47692;53.714;11.372;2022-08-20T12:47:12;2.97;;;1.35;;
61785;SDS011;47692;53.714;11.372;2022-08-20T12:49:49;3.20;;;1.70;;
61785;SDS011;47692;53.714;11.372;2022-08-20T12:52:17;2.30;;;1.60;;
61785;SDS011;47692;53.714;11.372;2022-08-20T12:54:44;3.35;;;1.70;;
61785;SDS011;47692;53.714;11.372;2022-08-20T12:57:14;2.53;;;1.45;;
61785;SDS011;47692;53.714;11.372;2022-08-20T12:59:46;3.80;;;1.60;;
61785;SDS011;47692;53.714;11.372;2022-08-20T13:02:11;2.75;;;1.52;;
61785;SDS011;47692;53.714;11.372;2022-08-20T13:04:36;2.35;;;1.58;;
61785;SDS011;47692;53.714;11.372;2022-08-20T13:07:02;6.20;;;1.50;;
61785;SDS011;47692;53.714;11.372;2022-08-20T13:09:28;3.90;;;1.45;;
61785;SDS011;47692;53.714;11.372;2022-08-20T13:11:53;3.72;;;1.38;;
61785;SDS011;47692;53.714;11.372;2022-08-20T13:14:18;4.25;;;1.40;;
61785;SDS011;47692;53.714;11.372;2022-08-20T13:16:44;2.63;;;1.65;;
61785;SDS011;47692;53.714;11.372;2022-08-20T13:19:09;2.92;;;1.70;;
61785;SDS011;47692;53.714;11.372;2022-08-20T13:21:34;3.28;;;1.80;;
61785;SDS011;47692;53.714;11.372;2022-08-20T13:24:00;3.95;;;1.60;;
61785;SDS011;47692;53.714;11.372;2022-08-20T13:26:26;2.50;;;1.58;;
61785;SDS011;47692;53.714;11.372;2022-08-20T13:28:51;4.82;;;1.67;;
61785;SDS011;47692;53.714;11.372;2022-08-20T13:31:17;2.53;;;1.48;;
61785;SDS011;47692;53.714;11.372;2022-08-20T13:33:42;2.83;;;1.50;;
61785;SDS011;47692;53.714;11.372;2022-08-20T13:36:07;3.47;;;1.40;;
61785;SDS011;47692;53.714;11.372;2022-08-20T13:38:33;1.83;;;1.23;;
61785;SDS011;47692;53.714;11.372;2022-08-20T13:40:58;2.38;;;1.20;;
61785;SDS011;47692;53.714;11.372;2022-08-20T13:43:23;3.38;;;1.48;;
61785;SDS011;47692;53.714;11.372;2022-08-20T13:45:49;4.57;;;1.35;;
61785;SDS011;47692;53.714;11.372;2022-08-20T13:48:14;2.40;;;1.20;;
61785;SDS011;47692;53.714;11.372;2022-08-20T13:50:39;5.00;;;1.60;;
61785;SDS011;47692;53.714;11.372;2022-08-20T13:53:05;4.47;;;1.25;;
61785;SDS011;47692;53.714;11.372;2022-08-20T13:55:30;3.72;;;1.20;;
61785;SDS011;47692;53.714;11.372;2022-08-20T13:57:56;3.17;;;1.23;;
61785;SDS011;47692;53.714;11.372;2022-08-20T14:00:25;2.60;;;1.05;;
61785;SDS011;47692;53.714;11.372;2022-08-20T14:02:54;4.07;;;1.30;;
61785;SDS011;47692;53.714;11.372;2022-08-20T14:05:19;3.17;;;1.60;;
61785;SDS011;47692;53.714;11.372;2022-08-20T14:07:45;4.38;;;1.48;;
61785;SDS011;47692;53.714;11.372;2022-08-20T14:10:14;4.68;;;1.35;;
61785;SDS011;47692;53.714;11.372;2022-08-20T14:12:42;4.38;;;1.40;;
61785;SDS011;47692;53.714;11.372;2022-08-20T14:15:08;5.50;;;1.15;;
61785;SDS011;47692;53.714;11.372;2022-08-20T14:17:35;2.40;;;1.30;;
61785;SDS011;47692;53.714;11.372;2022-08-20T14:20:09;3.78;;;1.17;;
61785;SDS011;47692;53.714;11.372;2022-08-20T14:22:37;3.85;;;1.50;;
61785;SDS011;47692;53.714;11.372;2022-08-20T14:25:06;4.55;;;1.25;;
61785;SDS011;47692;53.714;11.372;2022-08-20T14:27:33;3.63;;;0.80;;